Aeroporto :
LOGIN :

Iscrizione | Disclaimer

   EN    FR    IT 

 










Sommario :    VFR   VFR Marginale   IFR   IFR Intensivo   IFR Molto Intensivo
Visibilità : 
Base nubi : 
>= 8 km
>= 3000ft
5 / 8 km
1000 / 3000 ft
1500m / 5 km
500 / 1000 ft
800 / 1500m
200 / 500 ft
< 800m
< 200 ft
Simboli :   Temporali  Nebbia  Neve Forte  Precipitazioni Forti  Vento > 20 kt
SIGMETs :   Varie  Temporali  Ghiacco  Turbolenza  Onda orograficha  Ceneri Vulcaniche






- Altitudine del aeroporto : 1989 ft
- Codice IATA : KLV


LKKV - Karlovy Vary

ULTIMO METAR :
  • 250000Z 25012G24KT 200V290 9999 -RA BKN008 BKN023 07/06 Q1005

METARs OBSOLETI :
  • 242307Z 25011KT 220V280 9999 -DZRA BKN012 BKN020 07/05 Q1005 RMK REG QNH 1003
  • 242200Z 24008KT 190V280 9999 BKN012 BKN020 07/05 Q1006

TAF TAF LKKV
Valido dal 25 a 00 ore il 26 a 06 ore UTC


242300Z 2500/2606 24010KT 9999 BKN012
TEMPO 2500/2606 26012G26KT
TEMPO 2500/2600 RA BKN006
PROB30
TEMPO 2500/2600 4000 RA BKN003
TEMPO 2600/2606 4000 RASN BKN006
PROB30
TEMPO 2600/2606 2000 SN BKN003



MetMap, La meteo Aeronautica in un colpo d'occhio ! - Copyright ORBIFLY Dicembre 2007 - Disclaimer

ORBIFLY MET'MAP TEAM :

Programmazione e sviluppo : Alexandra Zaïnal
Concezione : Baudouin d'Aumeries
Aiuto per la programmazione : Marc-Olivier Méhu
Supporto tecnico e logistico : Manuel Goepfert
Aiuto per la traduzione : Arnaldo La Scala

Contatto : metmap@orbifly.com




FONTI E CREDITI :

   NOAA